createdAt,value
2023-04-02T00:01:22.906Z,97143.97
2023-04-02T00:03:54.236Z,97148.44
2023-04-02T00:06:35.028Z,97147.44
2023-04-02T00:09:14.072Z,97140.84
2023-04-02T00:11:45.950Z,97145.44
2023-04-02T00:14:23.919Z,97146.84
2023-04-02T00:16:52.562Z,97143.63
2023-04-02T00:19:28.895Z,97147.88
2023-04-02T00:21:56.766Z,97145.28
2023-04-02T00:24:23.651Z,97134.66
2023-04-02T00:26:51.852Z,97133.56
2023-04-02T00:29:19.465Z,97131.41
2023-04-02T00:31:51.449Z,97137.25
2023-04-02T00:34:23.562Z,97135.63
2023-04-02T00:36:51.235Z,97139.50
2023-04-02T00:39:29.548Z,97142.09
2023-04-02T00:42:07.075Z,97149.16
2023-04-02T00:44:38.840Z,97144.56
2023-04-02T00:47:15.128Z,97142.22
2023-04-02T00:49:42.462Z,97136.88
2023-04-02T00:52:14.594Z,97137.25
2023-04-02T00:55:24.038Z,97144.25
2023-04-02T00:57:51.915Z,97137.75
2023-04-02T01:00:24.917Z,97144.81
2023-04-02T01:03:34.853Z,97139.97
2023-04-02T01:06:11.108Z,97133.50
2023-04-02T01:08:46.676Z,97128.59
2023-04-02T01:11:37.234Z,97133.19
2023-04-02T01:14:36.938Z,97133.50
2023-04-02T01:17:26.691Z,97129.38
2023-04-02T01:20:15.910Z,97137.53
2023-04-02T01:22:58.044Z,97139.09
2023-04-02T01:25:35.900Z,97139.22
2023-04-02T01:28:13.249Z,97131.25
2023-04-02T01:30:41.683Z,97133.31
2023-04-02T01:33:08.610Z,97125.56
2023-04-02T01:35:39.674Z,97126.13
2023-04-02T01:38:55.301Z,97115.03
2023-04-02T01:41:50.224Z,97115.84
2023-04-02T01:44:44.824Z,97116.56
2023-04-02T01:47:13.880Z,97109.91
2023-04-02T01:49:42.824Z,97116.09
2023-04-02T01:52:16.671Z,97107.91
2023-04-02T01:54:47.386Z,97108.44
2023-04-02T01:57:14.711Z,97114.97
2023-04-02T01:59:41.851Z,97118.41
2023-04-02T02:02:13.616Z,97120.28
2023-04-02T02:04:41.257Z,97118.94
2023-04-02T02:07:15.291Z,97116.78
2023-04-02T02:09:42.858Z,97122.56
2023-04-02T02:12:13.903Z,97125.56
2023-04-02T02:14:46.844Z,97125.59
2023-04-02T02:17:21.669Z,97131.78
2023-04-02T02:19:52.338Z,97131.47
2023-04-02T02:22:29.127Z,97119.50
2023-04-02T02:24:58.288Z,97132.94
2023-04-02T02:27:25.763Z,97139.97
2023-04-02T02:30:07.623Z,97130.47
2023-04-02T02:32:35.251Z,97131.72
2023-04-02T02:35:08.020Z,97131.59
2023-04-02T02:37:41.378Z,97133.66
2023-04-02T02:40:21.311Z,97123.38
2023-04-02T02:42:51.733Z,97126.56
2023-04-02T02:45:23.072Z,97128.84
2023-04-02T02:47:50.512Z,97128.94
2023-04-02T02:50:26.495Z,97130.91
2023-04-02T02:52:55.507Z,97128.41
2023-04-02T02:55:27.629Z,97133.59
2023-04-02T02:57:59.194Z,97134.50
2023-04-02T03:00:26.842Z,97138.13
2023-04-02T03:02:56.429Z,97145.06
2023-04-02T03:05:26.881Z,97139.75
2023-04-02T03:07:56.069Z,97136.44
2023-04-02T03:10:28.745Z,97145.03
2023-04-02T03:13:26.036Z,97147.31
2023-04-02T03:16:13.376Z,97153.84
2023-04-02T03:18:48.951Z,97153.62
2023-04-02T03:21:31.133Z,97143.31
2023-04-02T03:24:13.292Z,97149.87
2023-04-02T03:26:44.682Z,97153.31
2023-04-02T03:29:18.208Z,97150.34
2023-04-02T03:31:54.030Z,97151.16
2023-04-02T03:34:25.753Z,97147.31
2023-04-02T03:37:13.402Z,97153.75
2023-04-02T03:39:44.073Z,97158.03
2023-04-02T03:42:21.677Z,97156.22
2023-04-02T03:44:53.031Z,97162.09
2023-04-02T03:47:41.080Z,97161.78
2023-04-02T03:50:12.780Z,97153.28
2023-04-02T03:52:39.826Z,97162.16
2023-04-02T03:55:17.599Z,97152.13
2023-04-02T03:57:56.114Z,97157.16
2023-04-02T04:00:28.798Z,97152.56
2023-04-02T04:03:17.172Z,97157.66
2023-04-02T04:06:01.705Z,97151.34
2023-04-02T04:08:44.979Z,97166.00
2023-04-02T04:11:17.567Z,97158.00
2023-04-02T04:13:49.652Z,97160.97
2023-04-02T04:16:23.979Z,97161.31
2023-04-02T04:18:57.377Z,97163.53
2023-04-02T04:21:31.488Z,97169.66
2023-04-02T04:24:03.966Z,97164.50
2023-04-02T04:26:49.805Z,97171.19
2023-04-02T04:29:38.287Z,97173.03
2023-04-02T04:32:32.561Z,97175.38
2023-04-02T04:35:15.634Z,97173.09
2023-04-02T04:37:43.865Z,97183.97
2023-04-02T04:40:21.403Z,97182.69
2023-04-02T04:42:50.961Z,97185.16
2023-04-02T04:45:29.105Z,97195.56
2023-04-02T04:48:05.490Z,97189.50
2023-04-02T04:51:06.671Z,97198.94
2023-04-02T04:53:33.575Z,97197.16
2023-04-02T04:56:18.200Z,97194.91
2023-04-02T04:58:52.071Z,97190.63
2023-04-02T05:01:27.931Z,97190.72
2023-04-02T05:04:06.960Z,97197.56
2023-04-02T05:06:45.706Z,97199.28
2023-04-02T05:09:32.323Z,97206.81
2023-04-02T05:12:22.094Z,97210.84
2023-04-02T05:14:57.108Z,97203.84
2023-04-02T05:17:29.966Z,97219.81
2023-04-02T05:20:07.507Z,97226.53
2023-04-02T05:22:40.941Z,97222.31
2023-04-02T05:25:08.224Z,97231.31
2023-04-02T05:27:34.913Z,97233.72
2023-04-02T05:30:24.617Z,97237.03
2023-04-02T05:33:01.569Z,97231.38
2023-04-02T05:35:36.805Z,97227.25
2023-04-02T05:38:05.916Z,97234.50
2023-04-02T05:40:42.698Z,97227.03
2023-04-02T05:43:11.226Z,97234.37
2023-04-02T05:45:39.539Z,97238.41
2023-04-02T05:48:16.411Z,97232.13
2023-04-02T05:50:45.079Z,97229.69
2023-04-02T05:53:17.734Z,97243.81
2023-04-02T05:56:16.832Z,97239.84
2023-04-02T05:58:49.853Z,97245.53
2023-04-02T06:01:35.527Z,97240.63
2023-04-02T06:04:24.371Z,97243.09
2023-04-02T06:07:16.108Z,97252.41
2023-04-02T06:09:51.083Z,97256.53
2023-04-02T06:12:35.621Z,97251.16
2023-04-02T06:15:02.681Z,97253.22
2023-04-02T06:17:30.099Z,97264.34
2023-04-02T06:19:58.086Z,97267.41
2023-04-02T06:22:39.631Z,97268.47
2023-04-02T06:25:15.689Z,97266.22
2023-04-02T06:27:43.501Z,97266.41
2023-04-02T06:30:18.008Z,97262.06
2023-04-02T06:32:44.946Z,97270.44
2023-04-02T06:35:16.088Z,97266.63
2023-04-02T06:37:47.517Z,97262.56
2023-04-02T06:40:40.048Z,97265.13
2023-04-02T06:43:26.485Z,97273.66
2023-04-02T06:45:55.757Z,97274.75
2023-04-02T06:48:24.221Z,97279.84
2023-04-02T06:51:02.549Z,97280.44
2023-04-02T06:53:35.099Z,97288.59
2023-04-02T06:56:20.236Z,97291.22
2023-04-02T06:58:47.103Z,97293.63
2023-04-02T07:01:28.893Z,97282.66
2023-04-02T07:03:56.507Z,97293.72
2023-04-02T07:06:23.499Z,97288.88
2023-04-02T07:08:50.437Z,97301.34
2023-04-02T07:11:20.971Z,97298.16
2023-04-02T07:13:50.754Z,97304.88
2023-04-02T07:16:20.166Z,97307.38
2023-04-02T07:18:48.640Z,97312.47
2023-04-02T07:21:15.780Z,97320.66
2023-04-02T07:23:42.698Z,97315.12
2023-04-02T07:26:14.996Z,97323.00
2023-04-02T07:28:42.211Z,97329.31
2023-04-02T07:31:20.885Z,97328.72
2023-04-02T07:33:48.412Z,97336.00
2023-04-02T07:36:17.721Z,97332.38
2023-04-02T07:38:46.908Z,97336.72
2023-04-02T07:41:14.295Z,97335.03
2023-04-02T07:43:41.498Z,97332.44
2023-04-02T07:46:09.632Z,97343.25
2023-04-02T07:48:36.744Z,97326.63
2023-04-02T07:51:03.876Z,97339.59
2023-04-02T07:53:32.040Z,97345.22
2023-04-02T07:56:01.598Z,97350.91
2023-04-02T07:58:29.745Z,97348.87
2023-04-02T08:00:56.614Z,97354.44
2023-04-02T08:03:23.603Z,97356.72
2023-04-02T08:05:55.183Z,97354.28
2023-04-02T08:08:23.827Z,97359.00
2023-04-02T08:10:50.983Z,97353.19
2023-04-02T08:13:18.694Z,97372.47
2023-04-02T08:15:45.867Z,97363.69
2023-04-02T08:18:12.868Z,97358.19
2023-04-02T08:20:39.772Z,97364.06
2023-04-02T08:23:15.524Z,97355.22
2023-04-02T08:25:42.436Z,97365.06
2023-04-02T08:28:09.297Z,97353.56
2023-04-02T08:30:36.608Z,97355.78
2023-04-02T08:33:04.201Z,97366.75
2023-04-02T08:35:31.471Z,97371.66
2023-04-02T08:37:58.929Z,97378.22
2023-04-02T08:40:37.441Z,97378.16
2023-04-02T08:43:22.381Z,97377.28
2023-04-02T08:46:14.898Z,97370.41
2023-04-02T08:48:44.822Z,97376.81
2023-04-02T08:51:24.940Z,97381.06
2023-04-02T08:53:54.650Z,97377.06
2023-04-02T08:56:45.185Z,97372.69
2023-04-02T08:59:35.995Z,97382.94
2023-04-02T09:02:05.814Z,97376.50
2023-04-02T09:04:34.201Z,97384.97
2023-04-02T09:07:01.188Z,97386.91
2023-04-02T09:09:28.278Z,97391.59
2023-04-02T09:12:03.407Z,97389.75
2023-04-02T09:14:42.116Z,97386.09
2023-04-02T09:17:19.757Z,97392.25
2023-04-02T09:20:21.401Z,97385.47
2023-04-02T09:22:51.210Z,97402.97
2023-04-02T09:25:22.055Z,97401.19
2023-04-02T09:27:50.359Z,97404.25
2023-04-02T09:30:32.327Z,97396.63
2023-04-02T09:33:07.752Z,97399.09
2023-04-02T09:35:37.365Z,97398.22
2023-04-02T09:38:35.471Z,97402.72
2023-04-02T09:41:07.164Z,97409.63
2023-04-02T09:43:35.637Z,97409.50
2023-04-02T09:46:02.425Z,97411.28
2023-04-02T09:48:53.394Z,97410.03
2023-04-02T09:51:33.394Z,97405.53
2023-04-02T09:54:03.366Z,97406.16
2023-04-02T09:56:40.254Z,97412.88
2023-04-02T09:59:13.143Z,97416.59
2023-04-02T10:01:42.807Z,97416.87
2023-04-02T10:04:45.263Z,97426.09
2023-04-02T10:07:31.164Z,97422.28
2023-04-02T10:10:15.338Z,97417.69
2023-04-02T10:12:42.789Z,97424.25
2023-04-02T10:15:16.547Z,97432.37
2023-04-02T10:17:44.372Z,97429.25
2023-04-02T10:20:24.154Z,97414.47
2023-04-02T10:22:51.056Z,97430.34
2023-04-02T10:25:20.414Z,97432.09
2023-04-02T10:27:49.800Z,97428.22
2023-04-02T10:30:21.299Z,97426.50
2023-04-02T10:33:09.907Z,97427.88
2023-04-02T10:35:46.027Z,97428.69
2023-04-02T10:38:29.138Z,97435.69
2023-04-02T10:41:40.513Z,97433.06
2023-04-02T10:44:20.252Z,97432.13
2023-04-02T10:47:27.413Z,97429.84
2023-04-02T10:50:05.566Z,97420.28
2023-04-02T10:52:40.471Z,97427.94
2023-04-02T10:55:35.589Z,97428.44
2023-04-02T10:58:07.853Z,97431.34
2023-04-02T11:00:39.857Z,97430.16
2023-04-02T11:03:17.031Z,97426.16
2023-04-02T11:05:44.544Z,97436.03
2023-04-02T11:08:21.677Z,97433.72
2023-04-02T11:10:53.513Z,97441.88
2023-04-02T11:13:30.916Z,97445.59
2023-04-02T11:15:57.969Z,97439.09
2023-04-02T11:18:38.912Z,97439.31
2023-04-02T11:21:07.732Z,97441.97
2023-04-02T11:23:57.150Z,97437.59
2023-04-02T11:26:53.838Z,97447.06
2023-04-02T11:29:22.878Z,97440.63
2023-04-02T11:31:51.983Z,97438.06
2023-04-02T11:35:03.033Z,97437.06
2023-04-02T11:37:41.206Z,97435.28
2023-04-02T11:40:11.042Z,97429.81
2023-04-02T11:42:38.347Z,97442.81
2023-04-02T11:45:23.390Z,97441.28
2023-04-02T11:48:04.105Z,97438.53
2023-04-02T11:50:33.864Z,97444.69
2023-04-02T11:53:17.772Z,97442.38
2023-04-02T11:55:46.561Z,97444.38
2023-04-02T11:58:42.935Z,97439.53
2023-04-02T12:01:22.568Z,97444.09
2023-04-02T12:04:08.062Z,97444.88
2023-04-02T12:06:47.310Z,97443.13
2023-04-02T12:09:20.336Z,97449.50
2023-04-02T12:11:47.790Z,97438.34
2023-04-02T12:14:36.608Z,97440.22
2023-04-02T12:17:07.750Z,97432.34
2023-04-02T12:19:36.257Z,97428.00
2023-04-02T12:22:03.177Z,97437.72
2023-04-02T12:24:31.541Z,97431.72
2023-04-02T12:27:15.664Z,97434.44
2023-04-02T12:29:42.982Z,97433.28
2023-04-02T12:32:29.595Z,97433.41
2023-04-02T12:35:04.754Z,97431.53
2023-04-02T12:37:31.634Z,97437.81
2023-04-02T12:40:14.790Z,97437.78
2023-04-02T12:42:41.968Z,97437.19
2023-04-02T12:45:27.255Z,97435.66
2023-04-02T12:47:56.375Z,97440.19
2023-04-02T12:50:23.548Z,97429.38
2023-04-02T12:52:53.318Z,97437.41
2023-04-02T12:55:25.704Z,97425.34
2023-04-02T12:58:00.015Z,97426.78
2023-04-02T13:00:30.149Z,97417.84
2023-04-02T13:03:18.104Z,97393.03
2023-04-02T13:05:49.201Z,97427.28
2023-04-02T13:08:28.674Z,97419.53
2023-04-02T13:10:58.110Z,97442.31
2023-04-02T13:13:36.711Z,97427.78
2023-04-02T13:16:24.236Z,97425.78
2023-04-02T13:18:51.497Z,97443.00
2023-04-02T13:21:21.347Z,97433.50
2023-04-02T13:23:48.278Z,97430.94
2023-04-02T13:26:23.357Z,97436.81
2023-04-02T13:29:04.837Z,97434.09
2023-04-02T13:31:33.031Z,97437.78
2023-04-02T13:33:59.887Z,97425.87
2023-04-02T13:36:29.467Z,97424.47
2023-04-02T13:38:56.777Z,97427.81
2023-04-02T13:41:31.808Z,97431.53
2023-04-02T13:44:00.520Z,97419.66
2023-04-02T13:46:31.204Z,97421.50
2023-04-02T13:48:58.934Z,97435.69
2023-04-02T13:51:37.417Z,97439.50
2023-04-02T13:54:10.474Z,97430.91
2023-04-02T13:56:37.601Z,97427.50
2023-04-02T13:59:05.731Z,97430.97
2023-04-02T14:01:33.018Z,97424.78
2023-04-02T14:04:00.328Z,97428.72
2023-04-02T14:07:08.818Z,97432.25
2023-04-02T14:09:58.254Z,97445.16
2023-04-02T14:13:02.373Z,97439.19
2023-04-02T14:15:29.200Z,97438.19
2023-04-02T14:18:36.760Z,97443.00
2023-04-02T14:21:22.273Z,97447.44
2023-04-02T14:24:16.449Z,97450.38
2023-04-02T14:26:59.245Z,97443.31
2023-04-02T14:29:35.730Z,97439.16
2023-04-02T14:32:36.346Z,97446.25
2023-04-02T14:35:24.336Z,97446.50
2023-04-02T14:38:13.837Z,97455.66
2023-04-02T14:40:56.214Z,97445.13
2023-04-02T14:43:42.618Z,97444.06
2023-04-02T14:46:12.790Z,97440.94
2023-04-02T14:48:51.327Z,97435.31
2023-04-02T14:51:25.078Z,97435.00
2023-04-02T14:53:58.905Z,97432.50
2023-04-02T14:56:26.782Z,97428.56
2023-04-02T14:59:21.979Z,97443.25
2023-04-02T15:01:51.508Z,97442.47
2023-04-02T15:04:31.528Z,97450.41
2023-04-02T15:07:03.896Z,97448.59
2023-04-02T15:09:36.895Z,97446.88
2023-04-02T15:12:11.360Z,97443.47
2023-04-02T15:15:15.483Z,97449.28
2023-04-02T15:17:42.418Z,97446.81
2023-04-02T15:20:15.267Z,97448.66
2023-04-02T15:22:55.420Z,97450.91
2023-04-02T15:25:48.322Z,97459.84
2023-04-02T15:28:21.664Z,97457.88
2023-04-02T15:30:53.367Z,97453.53
2023-04-02T15:33:34.271Z,97453.56
2023-04-02T15:36:33.808Z,97455.63
2023-04-02T15:39:08.916Z,97462.84
2023-04-02T15:41:47.550Z,97453.16
2023-04-02T15:44:16.020Z,97463.91
2023-04-02T15:47:18.512Z,97460.75
2023-04-02T15:50:09.819Z,97460.50
2023-04-02T15:52:38.758Z,97465.88
2023-04-02T15:55:11.923Z,97474.19
2023-04-02T15:58:16.680Z,97477.97
2023-04-02T16:01:06.285Z,97471.59
2023-04-02T16:03:35.730Z,97485.09
2023-04-02T16:06:28.139Z,97494.22
2023-04-02T16:09:27.340Z,97495.03
2023-04-02T16:12:15.672Z,97505.34
2023-04-02T16:14:45.454Z,97503.66
2023-04-02T16:17:24.888Z,97502.88
2023-04-02T16:19:56.998Z,97504.81
2023-04-02T16:22:29.607Z,97517.34
2023-04-02T16:25:20.801Z,97527.47
2023-04-02T16:27:52.864Z,97518.00
2023-04-02T16:30:53.880Z,97539.37
2023-04-02T16:33:29.800Z,97540.59
2023-04-02T16:35:57.128Z,97546.31
2023-04-02T16:38:47.026Z,97539.37
2023-04-02T16:41:46.242Z,97549.91
2023-04-02T16:44:37.918Z,97556.28
2023-04-02T16:47:35.673Z,97561.09
2023-04-02T16:50:11.350Z,97554.56
2023-04-02T16:52:53.255Z,97552.44
2023-04-02T16:55:38.529Z,97565.00
2023-04-02T16:58:22.249Z,97567.50
2023-04-02T17:00:56.856Z,97562.69
2023-04-02T17:03:43.935Z,97572.03
2023-04-02T17:06:23.845Z,97578.66
2023-04-02T17:09:17.061Z,97579.88
2023-04-02T17:11:53.104Z,97578.28
2023-04-02T17:14:58.017Z,97588.22
2023-04-02T17:17:25.020Z,97592.50
2023-04-02T17:19:56.656Z,97608.88
2023-04-02T17:22:23.801Z,97613.94
2023-04-02T17:24:58.828Z,97603.13
2023-04-02T17:27:29.782Z,97616.75
2023-04-02T17:30:03.472Z,97613.75
2023-04-02T17:32:35.154Z,97621.09
2023-04-02T17:35:46.738Z,97629.75
2023-04-02T17:38:47.645Z,97637.50
2023-04-02T17:41:46.854Z,97627.88
2023-04-02T17:44:37.742Z,97643.19
2023-04-02T17:47:22.972Z,97645.53
2023-04-02T17:49:58.906Z,97652.59
2023-04-02T17:52:43.723Z,97664.53
2023-04-02T17:55:30.167Z,97663.56
2023-04-02T17:58:15.714Z,97668.03
2023-04-02T18:00:57.512Z,97658.91
2023-04-02T18:03:30.578Z,97681.12
2023-04-02T18:06:06.761Z,97689.53
2023-04-02T18:08:58.189Z,97687.34
2023-04-02T18:11:40.233Z,97691.94
2023-04-02T18:14:32.131Z,97705.59
2023-04-02T18:17:17.693Z,97710.03
2023-04-02T18:19:52.617Z,97706.19
2023-04-02T18:22:45.714Z,97705.41
2023-04-02T18:25:35.988Z,97711.97
2023-04-02T18:28:11.505Z,97720.91
2023-04-02T18:31:09.886Z,97720.66
2023-04-02T18:34:02.154Z,97726.34
2023-04-02T18:37:19.151Z,97739.72
2023-04-02T18:40:19.773Z,97752.00
2023-04-02T18:42:58.959Z,97757.81
2023-04-02T18:45:46.247Z,97755.56
2023-04-02T18:48:29.118Z,97759.63
2023-04-02T18:50:56.789Z,97766.50
2023-04-02T18:53:25.271Z,97775.13
2023-04-02T18:56:05.503Z,97761.97
2023-04-02T18:58:46.979Z,97776.69
2023-04-02T19:01:17.506Z,97762.13
2023-04-02T19:03:57.458Z,97761.69
2023-04-02T19:06:27.675Z,97753.53
2023-04-02T19:08:59.355Z,97763.97
2023-04-02T19:11:29.812Z,97766.44
2023-04-02T19:14:01.960Z,97781.09
2023-04-02T19:16:43.101Z,97766.88
2023-04-02T19:19:23.940Z,97773.03
2023-04-02T19:22:03.009Z,97774.81
2023-04-02T19:24:51.743Z,97769.03
2023-04-02T19:27:30.893Z,97767.87
2023-04-02T19:30:29.440Z,97783.25
2023-04-02T19:33:09.056Z,97774.28
2023-04-02T19:35:39.300Z,97789.97
2023-04-02T19:38:27.710Z,97762.31
2023-04-02T19:41:31.947Z,97786.50
2023-04-02T19:43:59.038Z,97796.59
2023-04-02T19:46:26.433Z,97799.69
2023-04-02T19:49:09.178Z,97788.13
2023-04-02T19:51:36.074Z,97802.69
2023-04-02T19:54:03.332Z,97808.03
2023-04-02T19:56:30.458Z,97807.50
2023-04-02T19:58:58.311Z,97809.44
2023-04-02T20:01:27.066Z,97811.91
2023-04-02T20:03:53.959Z,97832.34
2023-04-02T20:06:21.529Z,97811.97
2023-04-02T20:08:48.386Z,97795.53
2023-04-02T20:11:15.688Z,97831.50
2023-04-02T20:13:42.565Z,97847.69
2023-04-02T20:16:09.313Z,97850.78
2023-04-02T20:18:37.557Z,97841.56
2023-04-02T20:21:06.222Z,97842.25
2023-04-02T20:23:34.256Z,97837.91
2023-04-02T20:26:01.311Z,97832.12
2023-04-02T20:28:28.379Z,97833.12
2023-04-02T20:31:07.790Z,97843.37
2023-04-02T20:33:35.017Z,97870.59
2023-04-02T20:36:05.129Z,97870.41
2023-04-02T20:38:32.228Z,97866.06
2023-04-02T20:41:00.811Z,97873.38
2023-04-02T20:43:28.589Z,97868.50
2023-04-02T20:46:01.263Z,97875.00
2023-04-02T20:48:31.072Z,97873.63
2023-04-02T20:50:58.951Z,97880.81
2023-04-02T20:53:26.534Z,97878.12
2023-04-02T20:55:53.404Z,97851.16
2023-04-02T20:58:20.088Z,97862.56
2023-04-02T21:00:46.969Z,97871.31
2023-04-02T21:03:13.860Z,97877.66
2023-04-02T21:05:48.060Z,97870.19
2023-04-02T21:08:15.085Z,97824.88
2023-04-02T21:10:42.074Z,97836.94
2023-04-02T21:13:08.971Z,97857.09
2023-04-02T21:15:36.225Z,97851.34
2023-04-02T21:18:03.236Z,97875.59
2023-04-02T21:20:30.189Z,97872.66
2023-04-02T21:22:57.043Z,97867.59
2023-04-02T21:25:23.791Z,97880.44
2023-04-02T21:27:50.665Z,97880.75
2023-04-02T21:30:17.604Z,97876.06
2023-04-02T21:32:44.532Z,97877.41
2023-04-02T21:35:11.406Z,97875.53
2023-04-02T21:37:38.100Z,97899.63
2023-04-02T21:40:05.453Z,97888.19
2023-04-02T21:42:32.300Z,97883.69
2023-04-02T21:44:58.966Z,97889.59
2023-04-02T21:47:27.817Z,97885.28
2023-04-02T21:49:54.756Z,97833.41
2023-04-02T21:52:21.684Z,97884.19
2023-04-02T21:54:48.597Z,97874.81
2023-04-02T21:57:17.822Z,97896.97
2023-04-02T21:59:45.456Z,97895.84
2023-04-02T22:02:12.302Z,97897.19
2023-04-02T22:04:41.545Z,97914.00
2023-04-02T22:07:08.488Z,97915.00
2023-04-02T22:09:35.752Z,97924.84
2023-04-02T22:12:02.675Z,97910.53
2023-04-02T22:14:29.889Z,97931.78
2023-04-02T22:16:58.867Z,97958.00
2023-04-02T22:19:26.040Z,97972.94
2023-04-02T22:21:53.313Z,97987.75
2023-04-02T22:24:22.214Z,98000.41
2023-04-02T22:26:49.977Z,97998.06
2023-04-02T22:29:17.167Z,98005.97
2023-04-02T22:31:44.367Z,97999.56
2023-04-02T22:34:11.319Z,97994.63
2023-04-02T22:36:38.214Z,97990.13
2023-04-02T22:39:07.076Z,97987.31
2023-04-02T22:41:34.039Z,97994.56
2023-04-02T22:44:01.987Z,98011.09
2023-04-02T22:46:29.596Z,98013.59
2023-04-02T22:48:56.729Z,98017.06
2023-04-02T22:51:25.261Z,98011.25
2023-04-02T22:53:54.595Z,98013.16
2023-04-02T22:56:27.769Z,98019.69
2023-04-02T22:58:54.644Z,98011.69
2023-04-02T23:01:27.677Z,98025.16
2023-04-02T23:03:55.586Z,98016.63
2023-04-02T23:06:23.109Z,98007.91
2023-04-02T23:08:50.059Z,98010.31
2023-04-02T23:11:22.786Z,98006.56
2023-04-02T23:13:51.125Z,98011.72
2023-04-02T23:16:18.667Z,98013.44
2023-04-02T23:18:48.179Z,98013.41
2023-04-02T23:21:16.141Z,98008.25
2023-04-02T23:23:43.250Z,98019.37
2023-04-02T23:26:12.668Z,98027.41
2023-04-02T23:28:40.141Z,98024.69
2023-04-02T23:31:09.094Z,98030.84
2023-04-02T23:33:36.183Z,98027.44
2023-04-02T23:36:10.735Z,98023.53
2023-04-02T23:38:37.852Z,98004.16
2023-04-02T23:41:04.751Z,98015.09
2023-04-02T23:43:31.979Z,98013.22
2023-04-02T23:45:58.998Z,98019.59
2023-04-02T23:48:26.098Z,98018.94
2023-04-02T23:50:52.983Z,98023.75
2023-04-02T23:53:19.998Z,98023.41
2023-04-02T23:55:46.850Z,98018.44
2023-04-02T23:58:13.607Z,98018.22
